AKST,Max TemperatureF,Mean TemperatureF,Min TemperatureF,Max Dew PointF,MeanDew PointF,Min DewpointF,Max Humidity, Mean Humidity, Min Humidity, Max Sea Level PressureIn, Mean Sea Level PressureIn, Min Sea Level PressureIn, Max VisibilityMiles, Mean VisibilityMiles, Min VisibilityMiles, Max Wind SpeedMPH, Mean Wind SpeedMPH, Max Gust SpeedMPH,PrecipitationIn, CloudCover, Events, WindDirDegrees
2013-2-1,38,35,32,34,32,30,100,89,84,29.55,29.38,29.20,10,9,0,15,5,18,0.04,7,Fog-Rain-Snow,23
2013-2-2,40,38,35,34,33,32,96,85,76,29.18,28.98,28.87,10,10,10,28,11,33,0.03,8,Rain,113
2013-2-3,37,35,32,34,32,30,100,91,84,29.29,29.03,28.89,10,6,0,26,10,31,0.03,8,Fog-Rain-Snow,327
2013-2-4,33,32,30,31,29,27,93,91,84,29.51,29.45,29.35,10,5,1,25,13,29,0.09,8,Rain-Snow,292
2013-2-5,31,28,25,28,24,17,93,85,65,29.78,29.63,29.48,10,7,2,18,11,23,0.02,8,Rain-Snow,319
2013-2-6,41,33,25,36,30,17,97,84,60,29.77,29.34,29.16,10,5,1,44,16,49,0.14,7,Rain-Snow,140
2013-2-7,39,36,33,34,32,30,93,86,70,29.22,29.14,29.05,10,9,5,30,14,35,0.07,6,Rain-Snow,149
2013-2-8,39,37,34,36,35,32,93,90,84,29.32,29.22,28.93,10,9,5,28,15,33,0.21,8,Rain-Snow,115
2013-2-9,34,31,28,32,29,21,96,87,66,29.15,28.86,28.74,10,5,1,46,26,52,0.16,8,Snow,297
2013-2-10,35,28,20,31,23,15,93,80,62,29.59,29.42,29.15,10,6,0,30,15,35,0.06,7,Fog-Snow,233
2013-2-11,41,38,34,32,28,21,93,76,53,29.49,29.47,29.44,10,9,2,25,10,35,0.03,5,Snow,154
2013-2-12,37,33,29,30,24,13,0,0,0,29.87,29.60,29.49,10,8,1,30,12,35,0.02,4,Snow,241
2013-2-13,31,22,12,27,21,9,93,82,61,29.61,29.43,29.36,10,4,0,33,20,43,0.03,7,Fog-Snow,1
2013-2-14,21,19,17,18,12,9,86,77,59,30.04,29.74,29.49,8,3,1,30,22,33,T,8,Snow,328
2013-2-15,22,20,18,19,13,10,79,70,56,30.18,30.09,29.93,10,9,2,16,9,20,T,8,Snow,30
2013-2-16,39,33,27,36,31,21,93,88,66,29.89,29.45,29.27,10,5,1,39,23,48,0.51,8,Rain-Snow,95
2013-2-17,28,23,17,25,16,12,89,78,64,30.29,30.12,29.73,10,9,3,32,15,38,T,7,Snow,349
2013-2-18,38,32,25,33,27,19,88,82,74,30.05,29.71,29.44,10,8,1,39,23,49,0.16,8,Rain-Snow,146
2013-2-19,38,33,28,36,29,23,93,85,75,29.38,29.06,28.81,10,6,0,46,21,54,0.15,8,Fog-Rain-Snow,245
2013-2-20,38,33,28,34,28,21,100,80,67,29.48,29.35,29.06,10,8,1,35,13,40,0.03,6,Snow,268
2013-2-21,36,33,29,31,29,24,93,85,75,29.71,29.47,29.19,10,6,1,32,13,40,0.06,7,Snow,271
2013-2-22,36,33,30,32,30,23,93,83,70,29.73,29.29,28.85,10,6,1,41,21,51,0.05,7,Rain-Snow,164
2013-2-23,36,34,31,33,30,22,93,84,55,29.18,28.91,28.78,10,5,0,32,17,38,0.24,8,Fog-Rain-Snow,192
2013-2-24,33,29,24,30,21,16,93,81,65,29.66,29.50,29.19,10,7,0,33,21,40,0.01,8,Fog-Snow,329
2013-2-25,21,17,12,16,9,5,93,82,67,29.81,29.67,29.47,10,2,0,37,0,43,0.11,8,Fog-Snow,346
2013-2-26,19,16,13,13,10,7,0,0,0,29.73,29.38,29.16,10,6,2,25,13,29,0.01,8,Snow,340
2013-2-27,26,23,19,16,14,10,0,0,0,29.28,29.17,29.12,10,9,7,14,4,16,T,8,Snow,18
2013-2-28,28,24,20,25,20,15,0,0,0,29.86,29.54,29.30,10,6,1,25,12,28,0.05,8,Snow,328